sensor_id;sensor_type;location;lat;lon;timestamp;temperature;humidity
5850;DHT22;2951;47.712;9.400;2023-02-28T00:00:32;-1.10;99.90
5850;DHT22;2951;47.712;9.400;2023-02-28T00:02:58;-1.00;99.90
5850;DHT22;2951;47.712;9.400;2023-02-28T00:05:25;-1.00;99.90
5850;DHT22;2951;47.712;9.400;2023-02-28T00:07:52;-1.10;99.90
5850;DHT22;2951;47.712;9.400;2023-02-28T00:10:20;-1.00;99.90
5850;DHT22;2951;47.712;9.400;2023-02-28T00:12:47;-1.00;99.90
5850;DHT22;2951;47.712;9.400;2023-02-28T00:15:14;-1.00;99.90
5850;DHT22;2951;47.712;9.400;2023-02-28T00:17:41;-1.10;99.90
5850;DHT22;2951;47.712;9.400;2023-02-28T00:20:09;-1.00;99.90
5850;DHT22;2951;47.712;9.400;2023-02-28T00:22:36;-1.00;99.90
5850;DHT22;2951;47.712;9.400;2023-02-28T00:25:04;-1.00;99.90
5850;DHT22;2951;47.712;9.400;2023-02-28T00:27:30;-1.10;99.90
5850;DHT22;2951;47.712;9.400;2023-02-28T00:29:57;-1.10;99.90
5850;DHT22;2951;47.712;9.400;2023-02-28T00:32:24;-1.00;99.90
5850;DHT22;2951;47.712;9.400;2023-02-28T00:34:50;-1.10;99.90
5850;DHT22;2951;47.712;9.400;2023-02-28T00:37:17;-1.10;99.90
5850;DHT22;2951;47.712;9.400;2023-02-28T00:39:44;-1.10;99.90
5850;DHT22;2951;47.712;9.400;2023-02-28T00:42:10;-1.10;99.90
5850;DHT22;2951;47.712;9.400;2023-02-28T00:44:37;-1.10;99.90
5850;DHT22;2951;47.712;9.400;2023-02-28T00:47:03;-1.10;99.90
5850;DHT22;2951;47.712;9.400;2023-02-28T00:49:30;-1.10;99.90
5850;DHT22;2951;47.712;9.400;2023-02-28T00:51:57;-1.10;99.90
5850;DHT22;2951;47.712;9.400;2023-02-28T00:54:24;-1.20;99.90
5850;DHT22;2951;47.712;9.400;2023-02-28T00:56:50;-1.20;99.90
5850;DHT22;2951;47.712;9.400;2023-02-28T00:59:17;-1.10;99.90
5850;DHT22;2951;47.712;9.400;2023-02-28T01:01:44;-1.10;99.90
5850;DHT22;2951;47.712;9.400;2023-02-28T01:04:11;-1.20;99.90
5850;DHT22;2951;47.712;9.400;2023-02-28T01:06:38;-1.10;99.90
5850;DHT22;2951;47.712;9.400;2023-02-28T01:09:06;-1.20;99.90
5850;DHT22;2951;47.712;9.400;2023-02-28T01:11:33;-1.20;99.90
5850;DHT22;2951;47.712;9.400;2023-02-28T01:13:59;-1.10;99.90
5850;DHT22;2951;47.712;9.400;2023-02-28T01:16:26;-1.20;99.90
5850;DHT22;2951;47.712;9.400;2023-02-28T01:18:53;-1.10;99.90
5850;DHT22;2951;47.712;9.400;2023-02-28T01:21:20;-1.20;99.90
5850;DHT22;2951;47.712;9.400;2023-02-28T01:23:47;-1.20;99.90
5850;DHT22;2951;47.712;9.400;2023-02-28T01:26:16;-1.20;99.90
5850;DHT22;2951;47.712;9.400;2023-02-28T01:28:43;-1.20;99.90
5850;DHT22;2951;47.712;9.400;2023-02-28T01:31:09;-1.20;99.90
5850;DHT22;2951;47.712;9.400;2023-02-28T01:33:37;-1.20;99.90
5850;DHT22;2951;47.712;9.400;2023-02-28T01:36:09;-1.20;99.90
5850;DHT22;2951;47.712;9.400;2023-02-28T01:38:36;-1.20;99.90
5850;DHT22;2951;47.712;9.400;2023-02-28T01:41:03;-1.20;99.90
5850;DHT22;2951;47.712;9.400;2023-02-28T01:43:31;-1.20;99.90
5850;DHT22;2951;47.712;9.400;2023-02-28T01:45:58;-1.20;99.90
5850;DHT22;2951;47.712;9.400;2023-02-28T01:48:32;-1.20;99.90
5850;DHT22;2951;47.712;9.400;2023-02-28T01:51:01;-1.20;99.90
5850;DHT22;2951;47.712;9.400;2023-02-28T01:53:34;-1.20;99.90
5850;DHT22;2951;47.712;9.400;2023-02-28T01:56:06;-1.20;99.90
5850;DHT22;2951;47.712;9.400;2023-02-28T01:58:34;-1.20;99.90
5850;DHT22;2951;47.712;9.400;2023-02-28T02:01:00;-1.20;99.90
5850;DHT22;2951;47.712;9.400;2023-02-28T02:03:29;-1.20;99.90
5850;DHT22;2951;47.712;9.400;2023-02-28T02:05:56;-1.20;99.90
5850;DHT22;2951;47.712;9.400;2023-02-28T02:08:24;-1.20;99.90
5850;DHT22;2951;47.712;9.400;2023-02-28T02:10:52;-1.20;99.90
5850;DHT22;2951;47.712;9.400;2023-02-28T02:18:46;-1.30;99.90
5850;DHT22;2951;47.712;9.400;2023-02-28T02:26:34;-1.20;99.90
5850;DHT22;2951;47.712;9.400;2023-02-28T02:35:07;-1.30;99.90
5850;DHT22;2951;47.712;9.400;2023-02-28T02:37:40;-1.30;99.90
5850;DHT22;2951;47.712;9.400;2023-02-28T02:45:28;-1.20;99.90
5850;DHT22;2951;47.712;9.400;2023-02-28T02:48:02;-1.20;99.90
5850;DHT22;2951;47.712;9.400;2023-02-28T02:50:31;-1.20;99.90
5850;DHT22;2951;47.712;9.400;2023-02-28T02:53:00;-1.20;99.90
5850;DHT22;2951;47.712;9.400;2023-02-28T02:55:29;-1.20;99.90
5850;DHT22;2951;47.712;9.400;2023-02-28T02:57:59;-1.20;99.90
5850;DHT22;2951;47.712;9.400;2023-02-28T03:00:30;-1.20;99.90
5850;DHT22;2951;47.712;9.400;2023-02-28T03:02:58;-1.30;99.90
5850;DHT22;2951;47.712;9.400;2023-02-28T03:05:26;-1.30;99.90
5850;DHT22;2951;47.712;9.400;2023-02-28T03:07:54;-1.30;99.90
5850;DHT22;2951;47.712;9.400;2023-02-28T03:10:35;-1.30;99.90
5850;DHT22;2951;47.712;9.400;2023-02-28T03:13:47;-1.30;99.90
5850;DHT22;2951;47.712;9.400;2023-02-28T03:16:16;-1.30;99.90
5850;DHT22;2951;47.712;9.400;2023-02-28T03:23:55;-1.30;99.90
5850;DHT22;2951;47.712;9.400;2023-02-28T03:26:23;-1.30;99.90
5850;DHT22;2951;47.712;9.400;2023-02-28T03:31:46;-1.30;99.90
5850;DHT22;2951;47.712;9.400;2023-02-28T03:34:23;-1.30;99.90
5850;DHT22;2951;47.712;9.400;2023-02-28T03:36:55;-1.30;99.90
5850;DHT22;2951;47.712;9.400;2023-02-28T03:39:25;-1.30;99.90
5850;DHT22;2951;47.712;9.400;2023-02-28T03:41:57;-1.30;99.90
5850;DHT22;2951;47.712;9.400;2023-02-28T03:44:29;-1.30;99.90
5850;DHT22;2951;47.712;9.400;2023-02-28T03:46:58;-1.30;99.90
5850;DHT22;2951;47.712;9.400;2023-02-28T03:49:27;-1.30;99.90
5850;DHT22;2951;47.712;9.400;2023-02-28T03:51:56;-1.30;99.90
5850;DHT22;2951;47.712;9.400;2023-02-28T03:54:27;-1.20;99.90
5850;DHT22;2951;47.712;9.400;2023-02-28T03:56:57;-1.30;99.90
5850;DHT22;2951;47.712;9.400;2023-02-28T03:59:32;-1.20;99.90
5850;DHT22;2951;47.712;9.400;2023-02-28T04:02:00;-1.20;99.90
5850;DHT22;2951;47.712;9.400;2023-02-28T04:04:27;-1.30;99.90
5850;DHT22;2951;47.712;9.400;2023-02-28T04:07:00;-1.30;99.90
5850;DHT22;2951;47.712;9.400;2023-02-28T04:09:28;-1.20;99.90
5850;DHT22;2951;47.712;9.400;2023-02-28T04:11:54;-1.40;99.90
5850;DHT22;2951;47.712;9.400;2023-02-28T04:14:23;-1.40;99.90
5850;DHT22;2951;47.712;9.400;2023-02-28T04:16:49;-1.40;99.90
5850;DHT22;2951;47.712;9.400;2023-02-28T04:19:17;-1.30;99.90
5850;DHT22;2951;47.712;9.400;2023-02-28T04:21:45;-1.40;99.90
5850;DHT22;2951;47.712;9.400;2023-02-28T04:24:13;-1.30;99.90
5850;DHT22;2951;47.712;9.400;2023-02-28T04:26:41;-1.30;99.90
5850;DHT22;2951;47.712;9.400;2023-02-28T04:29:10;-1.30;99.90
5850;DHT22;2951;47.712;9.400;2023-02-28T04:31:37;-1.30;99.90
5850;DHT22;2951;47.712;9.400;2023-02-28T04:34:04;-1.30;99.90
5850;DHT22;2951;47.712;9.400;2023-02-28T04:36:31;-1.30;99.90
5850;DHT22;2951;47.712;9.400;2023-02-28T04:38:58;-1.40;99.90
5850;DHT22;2951;47.712;9.400;2023-02-28T04:41:24;-1.40;99.90
5850;DHT22;2951;47.712;9.400;2023-02-28T04:43:53;-1.40;99.90
5850;DHT22;2951;47.712;9.400;2023-02-28T04:46:19;-1.40;99.90
5850;DHT22;2951;47.712;9.400;2023-02-28T04:48:47;-1.40;99.90
5850;DHT22;2951;47.712;9.400;2023-02-28T04:51:14;-1.40;99.90
5850;DHT22;2951;47.712;9.400;2023-02-28T04:53:41;-1.40;99.90
5850;DHT22;2951;47.712;9.400;2023-02-28T04:56:08;-1.40;99.90
5850;DHT22;2951;47.712;9.400;2023-02-28T04:58:36;-1.40;99.90
5850;DHT22;2951;47.712;9.400;2023-02-28T05:01:04;-1.40;99.90
5850;DHT22;2951;47.712;9.400;2023-02-28T05:03:31;-1.40;99.90
5850;DHT22;2951;47.712;9.400;2023-02-28T05:05:58;-1.40;99.90
5850;DHT22;2951;47.712;9.400;2023-02-28T05:08:25;-1.40;99.90
5850;DHT22;2951;47.712;9.400;2023-02-28T05:10:51;-1.50;99.90
5850;DHT22;2951;47.712;9.400;2023-02-28T05:13:18;-1.40;99.90
5850;DHT22;2951;47.712;9.400;2023-02-28T05:15:45;-1.50;99.90
5850;DHT22;2951;47.712;9.400;2023-02-28T05:18:11;-1.50;99.90
5850;DHT22;2951;47.712;9.400;2023-02-28T05:20:38;-1.40;99.90
5850;DHT22;2951;47.712;9.400;2023-02-28T05:23:04;-1.40;99.90
5850;DHT22;2951;47.712;9.400;2023-02-28T05:25:31;-1.40;99.90
5850;DHT22;2951;47.712;9.400;2023-02-28T05:27:58;-1.40;99.90
5850;DHT22;2951;47.712;9.400;2023-02-28T05:30:25;-1.40;99.90
5850;DHT22;2951;47.712;9.400;2023-02-28T05:32:52;-1.50;99.90
5850;DHT22;2951;47.712;9.400;2023-02-28T05:35:18;-1.50;99.90
5850;DHT22;2951;47.712;9.400;2023-02-28T05:37:45;-1.50;99.90
5850;DHT22;2951;47.712;9.400;2023-02-28T05:40:12;-1.50;99.90
5850;DHT22;2951;47.712;9.400;2023-02-28T05:42:38;-1.60;99.90
5850;DHT22;2951;47.712;9.400;2023-02-28T05:45:05;-1.60;99.90
5850;DHT22;2951;47.712;9.400;2023-02-28T05:47:33;-1.60;99.90
5850;DHT22;2951;47.712;9.400;2023-02-28T05:50:00;-1.60;99.90
5850;DHT22;2951;47.712;9.400;2023-02-28T05:52:27;-1.60;99.90
5850;DHT22;2951;47.712;9.400;2023-02-28T05:54:55;-1.60;99.90
5850;DHT22;2951;47.712;9.400;2023-02-28T05:57:22;-1.60;99.90
5850;DHT22;2951;47.712;9.400;2023-02-28T05:59:50;-1.70;99.90
5850;DHT22;2951;47.712;9.400;2023-02-28T06:02:17;-1.70;99.90
5850;DHT22;2951;47.712;9.400;2023-02-28T06:04:44;-1.60;99.90
5850;DHT22;2951;47.712;9.400;2023-02-28T06:07:11;-1.60;99.90
5850;DHT22;2951;47.712;9.400;2023-02-28T06:09:38;-1.50;99.90
5850;DHT22;2951;47.712;9.400;2023-02-28T06:12:05;-1.60;99.90
5850;DHT22;2951;47.712;9.400;2023-02-28T06:14:33;-1.60;99.90
5850;DHT22;2951;47.712;9.400;2023-02-28T06:17:00;-1.50;99.90
5850;DHT22;2951;47.712;9.400;2023-02-28T06:19:27;-1.60;99.90
5850;DHT22;2951;47.712;9.400;2023-02-28T06:21:55;-1.60;99.90
5850;DHT22;2951;47.712;9.400;2023-02-28T06:24:23;-1.60;99.90
5850;DHT22;2951;47.712;9.400;2023-02-28T06:26:50;-1.60;99.90
5850;DHT22;2951;47.712;9.400;2023-02-28T06:29:17;-1.60;99.90
5850;DHT22;2951;47.712;9.400;2023-02-28T06:31:45;-1.60;99.90
5850;DHT22;2951;47.712;9.400;2023-02-28T06:34:12;-1.60;99.90
5850;DHT22;2951;47.712;9.400;2023-02-28T06:36:39;-1.50;99.90
5850;DHT22;2951;47.712;9.400;2023-02-28T06:39:06;-1.50;99.90
5850;DHT22;2951;47.712;9.400;2023-02-28T06:41:33;-1.50;99.90
5850;DHT22;2951;47.712;9.400;2023-02-28T06:44:19;-1.50;99.90
5850;DHT22;2951;47.712;9.400;2023-02-28T06:46:47;-1.40;99.90
5850;DHT22;2951;47.712;9.400;2023-02-28T06:49:13;-1.40;99.90
5850;DHT22;2951;47.712;9.400;2023-02-28T06:51:41;-1.40;99.90
5850;DHT22;2951;47.712;9.400;2023-02-28T06:54:08;-1.40;99.90
5850;DHT22;2951;47.712;9.400;2023-02-28T06:56:36;-1.30;99.90
5850;DHT22;2951;47.712;9.400;2023-02-28T06:59:02;-1.30;99.90
5850;DHT22;2951;47.712;9.400;2023-02-28T07:01:30;-1.30;99.90
5850;DHT22;2951;47.712;9.400;2023-02-28T07:03:59;-1.30;99.90
5850;DHT22;2951;47.712;9.400;2023-02-28T07:06:26;-1.30;99.90
5850;DHT22;2951;47.712;9.400;2023-02-28T07:08:53;-1.20;99.90
5850;DHT22;2951;47.712;9.400;2023-02-28T07:11:21;-1.20;99.90
5850;DHT22;2951;47.712;9.400;2023-02-28T07:13:49;-1.20;99.90
5850;DHT22;2951;47.712;9.400;2023-02-28T07:16:17;-1.10;99.90
5850;DHT22;2951;47.712;9.400;2023-02-28T07:18:43;-1.10;99.90
5850;DHT22;2951;47.712;9.400;2023-02-28T07:21:11;-1.00;99.90
5850;DHT22;2951;47.712;9.400;2023-02-28T07:23:38;-1.00;99.90
5850;DHT22;2951;47.712;9.400;2023-02-28T07:26:05;-1.00;99.90
5850;DHT22;2951;47.712;9.400;2023-02-28T07:28:32;-1.00;99.90
5850;DHT22;2951;47.712;9.400;2023-02-28T07:31:03;-1.00;99.90
5850;DHT22;2951;47.712;9.400;2023-02-28T07:33:29;-1.00;99.90
5850;DHT22;2951;47.712;9.400;2023-02-28T07:36:03;-1.00;99.90
5850;DHT22;2951;47.712;9.400;2023-02-28T07:38:30;-1.00;99.90
5850;DHT22;2951;47.712;9.400;2023-02-28T07:40:57;-0.90;99.90
5850;DHT22;2951;47.712;9.400;2023-02-28T07:43:24;-0.90;99.90
5850;DHT22;2951;47.712;9.400;2023-02-28T07:45:50;-1.00;99.90
5850;DHT22;2951;47.712;9.400;2023-02-28T07:48:17;-0.90;99.90
5850;DHT22;2951;47.712;9.400;2023-02-28T07:50:43;-0.80;99.90
5850;DHT22;2951;47.712;9.400;2023-02-28T07:53:10;-0.80;99.90
5850;DHT22;2951;47.712;9.400;2023-02-28T07:55:37;-0.80;99.90
5850;DHT22;2951;47.712;9.400;2023-02-28T07:58:03;-0.80;99.90
5850;DHT22;2951;47.712;9.400;2023-02-28T08:00:30;-0.70;99.90
5850;DHT22;2951;47.712;9.400;2023-02-28T08:02:58;-0.90;99.90
5850;DHT22;2951;47.712;9.400;2023-02-28T08:05:25;-1.00;99.90
5850;DHT22;2951;47.712;9.400;2023-02-28T08:07:51;-1.00;99.90
5850;DHT22;2951;47.712;9.400;2023-02-28T08:10:19;-1.00;99.90
5850;DHT22;2951;47.712;9.400;2023-02-28T08:12:46;-0.90;99.90
5850;DHT22;2951;47.712;9.400;2023-02-28T08:15:12;-0.90;99.90
5850;DHT22;2951;47.712;9.400;2023-02-28T08:17:39;-0.80;99.90
5850;DHT22;2951;47.712;9.400;2023-02-28T08:20:06;-0.80;99.90
5850;DHT22;2951;47.712;9.400;2023-02-28T08:22:33;-0.70;99.90
5850;DHT22;2951;47.712;9.400;2023-02-28T08:25:00;-0.80;99.90
5850;DHT22;2951;47.712;9.400;2023-02-28T08:27:26;-0.80;99.90
5850;DHT22;2951;47.712;9.400;2023-02-28T08:29:53;-0.80;99.90
5850;DHT22;2951;47.712;9.400;2023-02-28T08:32:19;-0.80;99.90
5850;DHT22;2951;47.712;9.400;2023-02-28T08:34:55;-0.70;99.90
5850;DHT22;2951;47.712;9.400;2023-02-28T08:37:22;-0.80;99.90
5850;DHT22;2951;47.712;9.400;2023-02-28T08:39:49;-0.80;99.90
5850;DHT22;2951;47.712;9.400;2023-02-28T08:42:16;-0.80;99.90
5850;DHT22;2951;47.712;9.400;2023-02-28T08:44:43;-0.70;99.90
5850;DHT22;2951;47.712;9.400;2023-02-28T08:47:10;-0.70;99.90
5850;DHT22;2951;47.712;9.400;2023-02-28T08:49:37;-0.70;99.90
5850;DHT22;2951;47.712;9.400;2023-02-28T08:52:04;-0.60;99.90
5850;DHT22;2951;47.712;9.400;2023-02-28T08:54:30;-0.60;99.90
5850;DHT22;2951;47.712;9.400;2023-02-28T08:56:58;-0.60;99.90
5850;DHT22;2951;47.712;9.400;2023-02-28T08:59:25;-0.60;99.90
5850;DHT22;2951;47.712;9.400;2023-02-28T09:01:51;-0.60;99.90
5850;DHT22;2951;47.712;9.400;2023-02-28T09:04:18;-0.50;99.90
5850;DHT22;2951;47.712;9.400;2023-02-28T09:06:46;-0.40;99.90
5850;DHT22;2951;47.712;9.400;2023-02-28T09:09:12;-0.20;99.90
5850;DHT22;2951;47.712;9.400;2023-02-28T09:11:39;-0.30;99.90
5850;DHT22;2951;47.712;9.400;2023-02-28T09:14:05;-0.20;99.90
5850;DHT22;2951;47.712;9.400;2023-02-28T09:16:32;-0.20;99.90
5850;DHT22;2951;47.712;9.400;2023-02-28T09:19:00;-0.20;99.90
5850;DHT22;2951;47.712;9.400;2023-02-28T09:21:27;-0.20;99.90
5850;DHT22;2951;47.712;9.400;2023-02-28T09:23:55;-0.20;99.90
5850;DHT22;2951;47.712;9.400;2023-02-28T09:26:22;-0.30;99.90
5850;DHT22;2951;47.712;9.400;2023-02-28T09:28:50;0.00;99.90
5850;DHT22;2951;47.712;9.400;2023-02-28T09:31:18;-0.20;99.90
5850;DHT22;2951;47.712;9.400;2023-02-28T09:33:49;0.00;99.90
5850;DHT22;2951;47.712;9.400;2023-02-28T09:36:15;0.10;99.90
5850;DHT22;2951;47.712;9.400;2023-02-28T09:38:42;0.10;99.90
5850;DHT22;2951;47.712;9.400;2023-02-28T09:41:11;0.10;99.90
5850;DHT22;2951;47.712;9.400;2023-02-28T09:43:40;-0.20;99.90
5850;DHT22;2951;47.712;9.400;2023-02-28T09:46:11;-0.20;99.90
5850;DHT22;2951;47.712;9.400;2023-02-28T09:48:43;0.00;99.90
5850;DHT22;2951;47.712;9.400;2023-02-28T09:53:49;0.30;99.90
5850;DHT22;2951;47.712;9.400;2023-02-28T09:56:28;0.30;99.90
5850;DHT22;2951;47.712;9.400;2023-02-28T09:59:18;0.20;99.90
5850;DHT22;2951;47.712;9.400;2023-02-28T10:07:15;0.60;99.90
5850;DHT22;2951;47.712;9.400;2023-02-28T10:09:45;0.80;99.90
5850;DHT22;2951;47.712;9.400;2023-02-28T10:12:13;0.90;99.90
5850;DHT22;2951;47.712;9.400;2023-02-28T10:14:44;0.70;99.90
5850;DHT22;2951;47.712;9.400;2023-02-28T10:17:19;0.60;99.90
5850;DHT22;2951;47.712;9.400;2023-02-28T10:24:54;0.50;99.90
5850;DHT22;2951;47.712;9.400;2023-02-28T10:27:23;0.50;99.90
5850;DHT22;2951;47.712;9.400;2023-02-28T10:29:51;0.60;99.90
5850;DHT22;2951;47.712;9.400;2023-02-28T10:32:25;0.60;99.90
5850;DHT22;2951;47.712;9.400;2023-02-28T10:34:57;0.70;99.90
5850;DHT22;2951;47.712;9.400;2023-02-28T10:37:24;0.70;99.90
5850;DHT22;2951;47.712;9.400;2023-02-28T10:39:51;0.80;99.90
5850;DHT22;2951;47.712;9.400;2023-02-28T10:42:27;0.80;99.90
5850;DHT22;2951;47.712;9.400;2023-02-28T10:47:34;1.00;99.90
5850;DHT22;2951;47.712;9.400;2023-02-28T10:50:01;1.00;99.90
5850;DHT22;2951;47.712;9.400;2023-02-28T10:52:32;1.10;99.90
5850;DHT22;2951;47.712;9.400;2023-02-28T10:58:01;1.40;99.90
5850;DHT22;2951;47.712;9.400;2023-02-28T11:00:32;1.30;99.90
5850;DHT22;2951;47.712;9.400;2023-02-28T11:02:59;1.40;99.90
5850;DHT22;2951;47.712;9.400;2023-02-28T11:05:33;1.70;99.90
5850;DHT22;2951;47.712;9.400;2023-02-28T11:08:17;1.50;99.90
5850;DHT22;2951;47.712;9.400;2023-02-28T11:10:44;1.70;99.90
5850;DHT22;2951;47.712;9.400;2023-02-28T11:13:19;1.80;99.90
5850;DHT22;2951;47.712;9.400;2023-02-28T11:15:51;1.60;99.90
5850;DHT22;2951;47.712;9.400;2023-02-28T11:18:21;1.70;99.90
5850;DHT22;2951;47.712;9.400;2023-02-28T11:20:49;1.60;99.90
5850;DHT22;2951;47.712;9.400;2023-02-28T11:23:16;1.50;99.90
5850;DHT22;2951;47.712;9.400;2023-02-28T11:25:46;1.50;99.90
5850;DHT22;2951;47.712;9.400;2023-02-28T11:28:27;1.30;99.90
5850;DHT22;2951;47.712;9.400;2023-02-28T11:31:01;0.90;99.90
5850;DHT22;2951;47.712;9.400;2023-02-28T11:36:27;1.10;99.90
5850;DHT22;2951;47.712;9.400;2023-02-28T11:38:56;1.00;99.90
5850;DHT22;2951;47.712;9.400;2023-02-28T11:43:58;1.30;99.90
5850;DHT22;2951;47.712;9.400;2023-02-28T11:48:58;1.10;99.90
5850;DHT22;2951;47.712;9.400;2023-02-28T11:56:39;1.20;99.90
5850;DHT22;2951;47.712;9.400;2023-02-28T12:04:24;1.40;99.90
5850;DHT22;2951;47.712;9.400;2023-02-28T12:22:32;1.50;99.90
5850;DHT22;2951;47.712;9.400;2023-02-28T12:27:29;1.50;99.90
5850;DHT22;2951;47.712;9.400;2023-02-28T12:29:58;1.40;99.90
5850;DHT22;2951;47.712;9.400;2023-02-28T12:32:30;1.40;99.90
5850;DHT22;2951;47.712;9.400;2023-02-28T12:34:58;1.50;99.90
5850;DHT22;2951;47.712;9.400;2023-02-28T12:37:36;1.70;99.90
5850;DHT22;2951;47.712;9.400;2023-02-28T12:40:05;1.70;99.90
5850;DHT22;2951;47.712;9.400;2023-02-28T12:42:34;1.60;99.90
5850;DHT22;2951;47.712;9.400;2023-02-28T12:45:05;1.50;99.90
5850;DHT22;2951;47.712;9.400;2023-02-28T12:47:37;1.50;99.90
5850;DHT22;2951;47.712;9.400;2023-02-28T12:50:08;1.50;99.90
5850;DHT22;2951;47.712;9.400;2023-02-28T12:55:11;1.50;99.90
5850;DHT22;2951;47.712;9.400;2023-02-28T12:57:46;1.60;99.90
5850;DHT22;2951;47.712;9.400;2023-02-28T13:08:08;1.60;99.90
5850;DHT22;2951;47.712;9.400;2023-02-28T13:10:44;1.70;99.90
5850;DHT22;2951;47.712;9.400;2023-02-28T13:13:19;1.70;99.90
5850;DHT22;2951;47.712;9.400;2023-02-28T13:18:32;2.20;99.90
5850;DHT22;2951;47.712;9.400;2023-02-28T13:20:59;2.30;99.90
5850;DHT22;2951;47.712;9.400;2023-02-28T13:26:13;2.20;99.90
5850;DHT22;2951;47.712;9.400;2023-02-28T13:31:22;1.90;99.90
5850;DHT22;2951;47.712;9.400;2023-02-28T13:36:29;1.60;99.90
5850;DHT22;2951;47.712;9.400;2023-02-28T13:39:00;1.90;99.90
5850;DHT22;2951;47.712;9.400;2023-02-28T13:46:25;1.80;99.90
5850;DHT22;2951;47.712;9.400;2023-02-28T13:48:52;2.10;99.90
5850;DHT22;2951;47.712;9.400;2023-02-28T13:51:38;2.30;99.90
5850;DHT22;2951;47.712;9.400;2023-02-28T14:00:02;2.30;99.90
5850;DHT22;2951;47.712;9.400;2023-02-28T14:04:54;1.90;99.90
5850;DHT22;2951;47.712;9.400;2023-02-28T14:07:26;1.80;99.90
5850;DHT22;2951;47.712;9.400;2023-02-28T14:10:03;1.70;99.90
5850;DHT22;2951;47.712;9.400;2023-02-28T14:18:20;1.70;99.90
5850;DHT22;2951;47.712;9.400;2023-02-28T14:20:52;1.80;99.90
5850;DHT22;2951;47.712;9.400;2023-02-28T14:26:00;2.20;99.90
5850;DHT22;2951;47.712;9.400;2023-02-28T14:31:17;1.90;99.90
5850;DHT22;2951;47.712;9.400;2023-02-28T14:36:26;1.90;99.90
5850;DHT22;2951;47.712;9.400;2023-02-28T14:39:01;1.90;99.90
5850;DHT22;2951;47.712;9.400;2023-02-28T14:41:32;1.90;99.90
5850;DHT22;2951;47.712;9.400;2023-02-28T14:44:25;2.10;99.90
5850;DHT22;2951;47.712;9.400;2023-02-28T14:46:54;1.90;99.90
5850;DHT22;2951;47.712;9.400;2023-02-28T14:49:28;1.60;99.90
5850;DHT22;2951;47.712;9.400;2023-02-28T14:52:30;1.70;99.90
5850;DHT22;2951;47.712;9.400;2023-02-28T14:55:01;1.60;99.90
5850;DHT22;2951;47.712;9.400;2023-02-28T14:57:30;1.60;99.90
5850;DHT22;2951;47.712;9.400;2023-02-28T15:00:06;1.50;99.90
5850;DHT22;2951;47.712;9.400;2023-02-28T15:02:38;1.40;99.90
5850;DHT22;2951;47.712;9.400;2023-02-28T15:07:38;1.50;99.90
5850;DHT22;2951;47.712;9.400;2023-02-28T15:12:39;1.40;99.90
5850;DHT22;2951;47.712;9.400;2023-02-28T15:15:13;1.40;99.90
5850;DHT22;2951;47.712;9.400;2023-02-28T15:17:40;1.50;99.90
5850;DHT22;2951;47.712;9.400;2023-02-28T15:20:11;1.40;99.90
5850;DHT22;2951;47.712;9.400;2023-02-28T15:22:38;1.40;99.90
5850;DHT22;2951;47.712;9.400;2023-02-28T15:25:05;1.40;99.90
5850;DHT22;2951;47.712;9.400;2023-02-28T15:27:34;1.50;99.90
5850;DHT22;2951;47.712;9.400;2023-02-28T15:30:07;1.30;99.90
5850;DHT22;2951;47.712;9.400;2023-02-28T15:32:38;1.40;99.90
5850;DHT22;2951;47.712;9.400;2023-02-28T15:38:25;1.20;99.90
5850;DHT22;2951;47.712;9.400;2023-02-28T15:40:56;1.10;99.90
5850;DHT22;2951;47.712;9.400;2023-02-28T15:43:30;1.30;99.90
5850;DHT22;2951;47.712;9.400;2023-02-28T15:45:58;1.60;99.90
5850;DHT22;2951;47.712;9.400;2023-02-28T15:48:45;1.80;99.90
5850;DHT22;2951;47.712;9.400;2023-02-28T15:58:47;2.60;99.90
5850;DHT22;2951;47.712;9.400;2023-02-28T16:01:23;2.80;99.90
5850;DHT22;2951;47.712;9.400;2023-02-28T16:03:51;3.00;99.90
5850;DHT22;2951;47.712;9.400;2023-02-28T16:06:22;3.30;99.90
5850;DHT22;2951;47.712;9.400;2023-02-28T16:08:50;3.00;99.90
5850;DHT22;2951;47.712;9.400;2023-02-28T16:11:17;2.70;99.90
5850;DHT22;2951;47.712;9.400;2023-02-28T16:13:44;2.60;99.90
5850;DHT22;2951;47.712;9.400;2023-02-28T16:16:15;2.80;99.90
5850;DHT22;2951;47.712;9.400;2023-02-28T16:18:42;2.70;99.90
5850;DHT22;2951;47.712;9.400;2023-02-28T16:21:08;2.60;99.90
5850;DHT22;2951;47.712;9.400;2023-02-28T16:23:35;2.60;99.90
5850;DHT22;2951;47.712;9.400;2023-02-28T16:26:03;2.20;99.90
5850;DHT22;2951;47.712;9.400;2023-02-28T16:28:31;2.00;99.90
5850;DHT22;2951;47.712;9.400;2023-02-28T16:31:00;1.80;99.90
5850;DHT22;2951;47.712;9.400;2023-02-28T16:33:29;1.70;99.90
5850;DHT22;2951;47.712;9.400;2023-02-28T16:35:56;1.50;99.90
5850;DHT22;2951;47.712;9.400;2023-02-28T16:38:23;1.50;99.90
5850;DHT22;2951;47.712;9.400;2023-02-28T16:40:51;1.40;99.90
5850;DHT22;2951;47.712;9.400;2023-02-28T16:43:20;1.30;99.90
5850;DHT22;2951;47.712;9.400;2023-02-28T16:45:48;1.30;99.90
5850;DHT22;2951;47.712;9.400;2023-02-28T16:48:15;1.20;99.90
5850;DHT22;2951;47.712;9.400;2023-02-28T16:50:42;1.20;99.90
5850;DHT22;2951;47.712;9.400;2023-02-28T16:53:10;1.10;99.90
5850;DHT22;2951;47.712;9.400;2023-02-28T16:55:37;1.00;99.90
5850;DHT22;2951;47.712;9.400;2023-02-28T16:58:04;1.00;99.90
5850;DHT22;2951;47.712;9.400;2023-02-28T17:00:31;0.90;99.90
5850;DHT22;2951;47.712;9.400;2023-02-28T17:02:58;0.80;99.90
5850;DHT22;2951;47.712;9.400;2023-02-28T17:05:33;0.80;99.90
5850;DHT22;2951;47.712;9.400;2023-02-28T17:08:01;0.70;99.90
5850;DHT22;2951;47.712;9.400;2023-02-28T17:10:28;0.60;99.90
5850;DHT22;2951;47.712;9.400;2023-02-28T17:12:55;0.60;99.90
5850;DHT22;2951;47.712;9.400;2023-02-28T17:15:31;0.50;99.90
5850;DHT22;2951;47.712;9.400;2023-02-28T17:17:58;0.50;99.90
5850;DHT22;2951;47.712;9.400;2023-02-28T17:20:24;0.50;99.90
5850;DHT22;2951;47.712;9.400;2023-02-28T17:22:53;0.40;99.90
5850;DHT22;2951;47.712;9.400;2023-02-28T17:25:20;0.40;99.90
5850;DHT22;2951;47.712;9.400;2023-02-28T17:27:47;0.30;99.90
5850;DHT22;2951;47.712;9.400;2023-02-28T17:32:41;0.30;99.90
5850;DHT22;2951;47.712;9.400;2023-02-28T17:35:08;0.20;99.90
5850;DHT22;2951;47.712;9.400;2023-02-28T17:37:35;0.20;99.90
5850;DHT22;2951;47.712;9.400;2023-02-28T17:40:02;0.20;99.90
5850;DHT22;2951;47.712;9.400;2023-02-28T17:42:29;0.20;99.90
5850;DHT22;2951;47.712;9.400;2023-02-28T17:44:55;0.20;99.90
5850;DHT22;2951;47.712;9.400;2023-02-28T17:47:22;0.10;99.90
5850;DHT22;2951;47.712;9.400;2023-02-28T17:49:49;0.10;99.90
5850;DHT22;2951;47.712;9.400;2023-02-28T17:52:15;0.10;99.90
5850;DHT22;2951;47.712;9.400;2023-02-28T17:54:42;0.10;99.90
5850;DHT22;2951;47.712;9.400;2023-02-28T17:57:16;0.10;99.90
5850;DHT22;2951;47.712;9.400;2023-02-28T17:59:43;0.10;99.90
5850;DHT22;2951;47.712;9.400;2023-02-28T18:02:11;0.10;99.90
5850;DHT22;2951;47.712;9.400;2023-02-28T18:04:38;0.10;99.90
5850;DHT22;2951;47.712;9.400;2023-02-28T18:07:05;0.10;99.90
5850;DHT22;2951;47.712;9.400;2023-02-28T18:09:32;0.00;99.90
5850;DHT22;2951;47.712;9.400;2023-02-28T18:11:59;0.00;99.90
5850;DHT22;2951;47.712;9.400;2023-02-28T18:14:26;0.10;99.90
5850;DHT22;2951;47.712;9.400;2023-02-28T18:16:53;0.00;99.90
5850;DHT22;2951;47.712;9.400;2023-02-28T18:19:20;0.00;99.90
5850;DHT22;2951;47.712;9.400;2023-02-28T18:21:48;0.00;99.90
5850;DHT22;2951;47.712;9.400;2023-02-28T18:24:15;0.00;99.90
5850;DHT22;2951;47.712;9.400;2023-02-28T18:26:42;-0.10;99.90
5850;DHT22;2951;47.712;9.400;2023-02-28T18:29:08;-0.10;99.90
5850;DHT22;2951;47.712;9.400;2023-02-28T18:31:41;-0.10;99.90
5850;DHT22;2951;47.712;9.400;2023-02-28T18:34:08;-0.20;99.90
5850;DHT22;2951;47.712;9.400;2023-02-28T18:36:35;-0.10;99.90
5850;DHT22;2951;47.712;9.400;2023-02-28T18:39:01;-0.20;99.90
5850;DHT22;2951;47.712;9.400;2023-02-28T18:41:28;-0.20;99.90
5850;DHT22;2951;47.712;9.400;2023-02-28T18:43:54;-0.20;99.90
5850;DHT22;2951;47.712;9.400;2023-02-28T18:46:22;-0.20;99.90
5850;DHT22;2951;47.712;9.400;2023-02-28T18:48:49;-0.20;99.90